sensor_id;sensor_type;location;lat;lon;timestamp;pressure;altitude;pressure_sealevel;temperature;humidity
75051;BME280;63628;47.656;11.310;2023-04-25T00:02:08;94210.38;;;11.15;68.66
75051;BME280;63628;47.656;11.310;2023-04-25T00:04:35;94206.50;;;11.27;67.48
75051;BME280;63628;47.656;11.310;2023-04-25T00:07:04;94202.34;;;11.36;66.89
75051;BME280;63628;47.656;11.310;2023-04-25T00:09:31;94208.81;;;10.48;70.50
75051;BME280;63628;47.656;11.310;2023-04-25T00:11:58;94202.97;;;11.17;68.41
75051;BME280;63628;47.656;11.310;2023-04-25T00:14:25;94204.63;;;11.23;67.57
75051;BME280;63628;47.656;11.310;2023-04-25T00:16:51;94209.38;;;9.44;70.93
75051;BME280;63628;47.656;11.310;2023-04-25T00:19:19;94211.69;;;10.90;68.35
75051;BME280;63628;47.656;11.310;2023-04-25T00:21:46;94214.31;;;11.12;67.47
75051;BME280;63628;47.656;11.310;2023-04-25T00:24:13;94212.50;;;11.18;67.97
75051;BME280;63628;47.656;11.310;2023-04-25T00:26:39;94216.13;;;11.06;69.23
75051;BME280;63628;47.656;11.310;2023-04-25T00:29:06;94208.00;;;11.18;68.16
75051;BME280;63628;47.656;11.310;2023-04-25T00:31:32;94201.16;;;10.30;68.32
75051;BME280;63628;47.656;11.310;2023-04-25T00:33:59;94216.78;;;10.31;70.40
75051;BME280;63628;47.656;11.310;2023-04-25T00:36:27;94205.66;;;10.73;67.60
75051;BME280;63628;47.656;11.310;2023-04-25T00:38:54;94207.72;;;10.66;67.03
75051;BME280;63628;47.656;11.310;2023-04-25T00:41:21;94205.84;;;10.66;58.04
75051;BME280;63628;47.656;11.310;2023-04-25T00:43:48;94214.44;;;11.00;66.57
75051;BME280;63628;47.656;11.310;2023-04-25T00:46:16;94203.78;;;11.17;68.47
75051;BME280;63628;47.656;11.310;2023-04-25T00:48:43;94196.06;;;11.16;68.75
75051;BME280;63628;47.656;11.310;2023-04-25T00:51:13;94197.97;;;11.20;68.66
75051;BME280;63628;47.656;11.310;2023-04-25T00:53:44;94201.44;;;9.95;55.61
75051;BME280;63628;47.656;11.310;2023-04-25T00:56:11;94195.41;;;10.55;68.50
75051;BME280;63628;47.656;11.310;2023-04-25T00:58:38;94196.47;;;9.14;60.71
75051;BME280;63628;47.656;11.310;2023-04-25T01:01:06;94188.16;;;10.45;68.65
75051;BME280;63628;47.656;11.310;2023-04-25T01:03:35;94189.44;;;9.53;57.12
75051;BME280;63628;47.656;11.310;2023-04-25T01:06:08;94202.53;;;10.76;68.59
75051;BME280;63628;47.656;11.310;2023-04-25T01:08:36;94189.19;;;10.93;67.77
75051;BME280;63628;47.656;11.310;2023-04-25T01:11:05;94188.75;;;8.96;59.63
75051;BME280;63628;47.656;11.310;2023-04-25T01:13:31;94192.25;;;10.36;69.97
75051;BME280;63628;47.656;11.310;2023-04-25T01:15:59;94177.56;;;10.45;67.19
75051;BME280;63628;47.656;11.310;2023-04-25T01:18:26;94177.47;;;10.01;58.84
75051;BME280;63628;47.656;11.310;2023-04-25T01:20:54;94182.59;;;8.62;61.53
75051;BME280;63628;47.656;11.310;2023-04-25T01:23:23;94186.81;;;8.63;56.56
75051;BME280;63628;47.656;11.310;2023-04-25T01:25:50;94182.47;;;9.64;68.24
75051;BME280;63628;47.656;11.310;2023-04-25T01:28:17;94180.16;;;9.51;67.06
75051;BME280;63628;47.656;11.310;2023-04-25T01:30:44;94173.09;;;9.90;64.75
75051;BME280;63628;47.656;11.310;2023-04-25T01:33:14;94174.47;;;10.53;68.66
75051;BME280;63628;47.656;11.310;2023-04-25T01:35:41;94172.63;;;9.93;57.98
75051;BME280;63628;47.656;11.310;2023-04-25T01:38:08;94174.88;;;10.23;69.67
75051;BME280;63628;47.656;11.310;2023-04-25T01:40:38;94176.13;;;8.70;57.38
75051;BME280;63628;47.656;11.310;2023-04-25T01:43:06;94175.28;;;10.15;68.69
75051;BME280;63628;47.656;11.310;2023-04-25T01:45:34;94172.72;;;9.48;63.57
75051;BME280;63628;47.656;11.310;2023-04-25T01:48:03;94174.88;;;9.17;61.76
75051;BME280;63628;47.656;11.310;2023-04-25T01:50:30;94167.66;;;10.18;69.28
75051;BME280;63628;47.656;11.310;2023-04-25T01:52:56;94165.25;;;10.56;68.42
75051;BME280;63628;47.656;11.310;2023-04-25T01:55:23;94168.16;;;10.54;68.75
75051;BME280;63628;47.656;11.310;2023-04-25T01:57:51;94170.25;;;9.58;68.60
75051;BME280;63628;47.656;11.310;2023-04-25T02:00:18;94167.09;;;10.16;61.56
75051;BME280;63628;47.656;11.310;2023-04-25T02:02:45;94166.97;;;10.67;68.23
75051;BME280;63628;47.656;11.310;2023-04-25T02:05:12;94166.09;;;10.61;68.24
75051;BME280;63628;47.656;11.310;2023-04-25T02:07:38;94157.53;;;10.32;67.62
75051;BME280;63628;47.656;11.310;2023-04-25T02:10:06;94163.63;;;10.76;68.35
75051;BME280;63628;47.656;11.310;2023-04-25T02:12:32;94170.72;;;10.71;69.20
75051;BME280;63628;47.656;11.310;2023-04-25T02:15:01;94168.41;;;10.79;68.88
75051;BME280;63628;47.656;11.310;2023-04-25T02:17:27;94170.25;;;10.79;68.25
75051;BME280;63628;47.656;11.310;2023-04-25T02:19:54;94165.56;;;10.59;67.25
75051;BME280;63628;47.656;11.310;2023-04-25T02:22:20;94172.13;;;10.78;67.88
75051;BME280;63628;47.656;11.310;2023-04-25T02:24:47;94169.66;;;10.28;67.68
75051;BME280;63628;47.656;11.310;2023-04-25T02:27:14;94175.56;;;8.68;63.74
75051;BME280;63628;47.656;11.310;2023-04-25T02:29:41;94164.88;;;10.25;69.96
75051;BME280;63628;47.656;11.310;2023-04-25T02:32:09;94169.84;;;10.65;68.38
75051;BME280;63628;47.656;11.310;2023-04-25T02:34:35;94164.91;;;10.74;68.10
75051;BME280;63628;47.656;11.310;2023-04-25T02:37:02;94157.53;;;10.76;68.82
75051;BME280;63628;47.656;11.310;2023-04-25T02:39:29;94161.28;;;10.80;68.25
75051;BME280;63628;47.656;11.310;2023-04-25T02:41:56;94162.88;;;10.81;67.61
75051;BME280;63628;47.656;11.310;2023-04-25T02:44:23;94146.75;;;10.83;67.23
75051;BME280;63628;47.656;11.310;2023-04-25T02:46:49;94146.75;;;10.83;67.50
75051;BME280;63628;47.656;11.310;2023-04-25T02:49:17;94143.25;;;10.77;68.08
75051;BME280;63628;47.656;11.310;2023-04-25T02:51:44;94148.94;;;8.41;66.11
75051;BME280;63628;47.656;11.310;2023-04-25T02:54:10;94137.72;;;8.90;72.37
75051;BME280;63628;47.656;11.310;2023-04-25T02:56:37;94127.72;;;10.37;69.02
75051;BME280;63628;47.656;11.310;2023-04-25T02:59:04;94121.56;;;10.53;69.02
75051;BME280;63628;47.656;11.310;2023-04-25T03:01:30;94124.03;;;10.60;68.85
75051;BME280;63628;47.656;11.310;2023-04-25T03:03:57;94130.31;;;9.54;63.74
75051;BME280;63628;47.656;11.310;2023-04-25T03:06:25;94126.56;;;10.50;69.54
75051;BME280;63628;47.656;11.310;2023-04-25T03:08:52;94118.47;;;10.61;67.81
75051;BME280;63628;47.656;11.310;2023-04-25T03:11:18;94124.31;;;10.63;68.86
75051;BME280;63628;47.656;11.310;2023-04-25T03:13:46;94116.94;;;10.65;68.02
75051;BME280;63628;47.656;11.310;2023-04-25T03:16:13;94117.69;;;10.39;62.56
75051;BME280;63628;47.656;11.310;2023-04-25T03:18:40;94124.13;;;9.82;63.03
75051;BME280;63628;47.656;11.310;2023-04-25T03:21:06;94126.13;;;7.94;75.49
75051;BME280;63628;47.656;11.310;2023-04-25T03:23:34;94114.78;;;9.97;70.64
75051;BME280;63628;47.656;11.310;2023-04-25T03:26:01;94111.69;;;10.43;69.17
75051;BME280;63628;47.656;11.310;2023-04-25T03:28:28;94111.78;;;10.54;69.32
75051;BME280;63628;47.656;11.310;2023-04-25T03:30:54;94124.81;;;10.60;68.92
75051;BME280;63628;47.656;11.310;2023-04-25T03:33:21;94123.16;;;10.10;68.85
75051;BME280;63628;47.656;11.310;2023-04-25T03:35:48;94119.75;;;10.15;63.33
75051;BME280;63628;47.656;11.310;2023-04-25T03:38:16;94132.66;;;10.50;69.02
75051;BME280;63628;47.656;11.310;2023-04-25T03:40:44;94127.34;;;10.28;68.12
75051;BME280;63628;47.656;11.310;2023-04-25T03:43:11;94125.75;;;10.27;67.55
75051;BME280;63628;47.656;11.310;2023-04-25T03:45:38;94122.13;;;10.55;68.66
75051;BME280;63628;47.656;11.310;2023-04-25T03:48:04;94123.47;;;10.58;68.27
75051;BME280;63628;47.656;11.310;2023-04-25T03:50:31;94135.09;;;10.57;65.29
75051;BME280;63628;47.656;11.310;2023-04-25T03:52:58;94129.31;;;10.60;68.54
75051;BME280;63628;47.656;11.310;2023-04-25T03:55:25;94124.81;;;10.60;67.96
75051;BME280;63628;47.656;11.310;2023-04-25T03:57:52;94129.88;;;8.96;73.15
75051;BME280;63628;47.656;11.310;2023-04-25T04:00:19;94119.91;;;10.25;69.45
75051;BME280;63628;47.656;11.310;2023-04-25T04:02:46;94127.06;;;10.46;68.53
75051;BME280;63628;47.656;11.310;2023-04-25T04:05:13;94129.25;;;10.55;68.35
75051;BME280;63628;47.656;11.310;2023-04-25T04:07:40;94129.25;;;10.55;68.17
75051;BME280;63628;47.656;11.310;2023-04-25T04:10:09;94131.16;;;9.77;70.10
75051;BME280;63628;47.656;11.310;2023-04-25T04:12:37;94117.91;;;9.94;70.87
75051;BME280;63628;47.656;11.310;2023-04-25T04:15:06;94111.34;;;10.40;69.31
75051;BME280;63628;47.656;11.310;2023-04-25T04:17:33;94110.69;;;10.50;69.00
75051;BME280;63628;47.656;11.310;2023-04-25T04:20:00;94119.44;;;10.50;68.76
75051;BME280;63628;47.656;11.310;2023-04-25T04:22:27;94128.53;;;8.93;64.20
75051;BME280;63628;47.656;11.310;2023-04-25T04:24:53;94133.94;;;6.78;71.76
75051;BME280;63628;47.656;11.310;2023-04-25T04:27:21;94133.97;;;5.99;73.32
75051;BME280;63628;47.656;11.310;2023-04-25T04:29:48;94145.03;;;7.68;76.63
75051;BME280;63628;47.656;11.310;2023-04-25T04:32:16;94136.09;;;7.81;69.06
75051;BME280;63628;47.656;11.310;2023-04-25T04:34:43;94139.56;;;9.74;71.55
75051;BME280;63628;47.656;11.310;2023-04-25T04:37:11;94142.38;;;10.06;69.54
75051;BME280;63628;47.656;11.310;2023-04-25T04:39:39;94135.88;;;10.13;69.25
75051;BME280;63628;47.656;11.310;2023-04-25T04:42:07;94142.59;;;10.21;68.52
75051;BME280;63628;47.656;11.310;2023-04-25T04:44:34;94139.97;;;10.21;68.23
75051;BME280;63628;47.656;11.310;2023-04-25T04:47:01;94141.72;;;7.84;71.73
75051;BME280;63628;47.656;11.310;2023-04-25T04:49:34;94148.69;;;9.83;70.04
75051;BME280;63628;47.656;11.310;2023-04-25T04:52:00;94153.81;;;10.11;69.61
75051;BME280;63628;47.656;11.310;2023-04-25T04:54:27;94143.88;;;10.18;68.44
75051;BME280;63628;47.656;11.310;2023-04-25T04:56:54;94139.97;;;10.21;68.20
75051;BME280;63628;47.656;11.310;2023-04-25T04:59:21;94142.22;;;9.57;62.02
75051;BME280;63628;47.656;11.310;2023-04-25T05:01:47;94134.06;;;9.75;70.57
75051;BME280;63628;47.656;11.310;2023-04-25T05:04:14;94130.03;;;10.11;68.90
75051;BME280;63628;47.656;11.310;2023-04-25T05:06:42;94134.34;;;10.17;69.28
75051;BME280;63628;47.656;11.310;2023-04-25T05:09:14;94149.25;;;10.24;69.09
75051;BME280;63628;47.656;11.310;2023-04-25T05:11:41;94150.03;;;10.24;68.13
75051;BME280;63628;47.656;11.310;2023-04-25T05:14:08;94152.94;;;10.23;68.65
75051;BME280;63628;47.656;11.310;2023-04-25T05:16:34;94154.78;;;10.22;69.17
75051;BME280;63628;47.656;11.310;2023-04-25T05:19:01;94159.13;;;10.11;68.63
75051;BME280;63628;47.656;11.310;2023-04-25T05:21:28;94166.16;;;10.23;68.36
75051;BME280;63628;47.656;11.310;2023-04-25T05:23:56;94169.59;;;9.51;63.73
75051;BME280;63628;47.656;11.310;2023-04-25T05:26:22;94171.75;;;8.75;71.47
75051;BME280;63628;47.656;11.310;2023-04-25T05:28:50;94167.44;;;9.81;70.52
75051;BME280;63628;47.656;11.310;2023-04-25T05:31:17;94162.28;;;9.92;69.10
75051;BME280;63628;47.656;11.310;2023-04-25T05:33:44;94171.47;;;10.06;69.83
75051;BME280;63628;47.656;11.310;2023-04-25T05:36:10;94166.56;;;9.59;64.21
75051;BME280;63628;47.656;11.310;2023-04-25T05:38:37;94171.00;;;9.92;69.23
75051;BME280;63628;47.656;11.310;2023-04-25T05:41:05;94168.56;;;8.33;68.99
75051;BME280;63628;47.656;11.310;2023-04-25T05:43:32;94165.50;;;7.31;71.99
75051;BME280;63628;47.656;11.310;2023-04-25T05:45:58;94165.63;;;8.58;68.55
75051;BME280;63628;47.656;11.310;2023-04-25T05:48:25;94169.81;;;9.66;69.99
75051;BME280;63628;47.656;11.310;2023-04-25T05:50:52;94162.97;;;9.32;70.60
75051;BME280;63628;47.656;11.310;2023-04-25T05:53:19;94163.41;;;7.10;70.66
75051;BME280;63628;47.656;11.310;2023-04-25T05:55:46;94170.31;;;8.84;73.31
75051;BME280;63628;47.656;11.310;2023-04-25T05:58:14;94170.34;;;8.56;66.55
75051;BME280;63628;47.656;11.310;2023-04-25T06:00:41;94165.81;;;9.64;69.88
75051;BME280;63628;47.656;11.310;2023-04-25T06:03:08;94171.59;;;9.77;66.60
75051;BME280;63628;47.656;11.310;2023-04-25T06:05:36;94169.03;;;9.66;69.75
75051;BME280;63628;47.656;11.310;2023-04-25T06:08:03;94154.88;;;9.55;70.18
75051;BME280;63628;47.656;11.310;2023-04-25T06:10:30;94153.75;;;9.68;68.57
75051;BME280;63628;47.656;11.310;2023-04-25T06:12:56;94141.22;;;9.97;69.81
75051;BME280;63628;47.656;11.310;2023-04-25T06:15:24;94149.44;;;9.28;68.41
75051;BME280;63628;47.656;11.310;2023-04-25T06:17:54;94139.19;;;8.41;70.24
75051;BME280;63628;47.656;11.310;2023-04-25T06:20:21;94133.41;;;9.68;70.43
75051;BME280;63628;47.656;11.310;2023-04-25T06:22:50;94129.47;;;9.88;68.94
75051;BME280;63628;47.656;11.310;2023-04-25T06:25:18;94132.16;;;9.93;69.55
75051;BME280;63628;47.656;11.310;2023-04-25T06:27:44;94131.19;;;9.99;69.06
75051;BME280;63628;47.656;11.310;2023-04-25T06:30:11;94129.41;;;9.82;68.17
75051;BME280;63628;47.656;11.310;2023-04-25T06:32:40;94117.97;;;9.77;68.34
75051;BME280;63628;47.656;11.310;2023-04-25T06:35:07;94125.69;;;8.66;65.65
75051;BME280;63628;47.656;11.310;2023-04-25T06:37:35;94119.63;;;9.66;70.20
75051;BME280;63628;47.656;11.310;2023-04-25T06:40:02;94114.22;;;9.95;69.44
75051;BME280;63628;47.656;11.310;2023-04-25T06:42:28;94118.22;;;9.97;69.35
75051;BME280;63628;47.656;11.310;2023-04-25T06:44:55;94117.66;;;9.57;67.18
75051;BME280;63628;47.656;11.310;2023-04-25T06:47:22;94113.97;;;8.45;69.50
75051;BME280;63628;47.656;11.310;2023-04-25T06:49:50;94123.25;;;8.93;72.42
75051;BME280;63628;47.656;11.310;2023-04-25T06:52:17;94118.03;;;9.82;69.37
75051;BME280;63628;47.656;11.310;2023-04-25T06:54:44;94112.91;;;9.75;66.88
75051;BME280;63628;47.656;11.310;2023-04-25T06:57:11;94112.88;;;9.92;69.16
75051;BME280;63628;47.656;11.310;2023-04-25T06:59:38;94107.34;;;10.15;71.76
75051;BME280;63628;47.656;11.310;2023-04-25T07:02:05;94105.81;;;10.20;69.11
75051;BME280;63628;47.656;11.310;2023-04-25T07:04:32;94106.00;;;10.13;68.93
75051;BME280;63628;47.656;11.310;2023-04-25T07:07:00;94110.91;;;10.04;69.49
75051;BME280;63628;47.656;11.310;2023-04-25T07:09:28;94102.44;;;10.46;65.95
75051;BME280;63628;47.656;11.310;2023-04-25T07:11:55;94102.16;;;10.42;62.74
75051;BME280;63628;47.656;11.310;2023-04-25T07:14:23;94109.56;;;9.63;64.10
75051;BME280;63628;47.656;11.310;2023-04-25T07:16:49;94109.13;;;9.88;67.01
75051;BME280;63628;47.656;11.310;2023-04-25T07:19:16;94102.84;;;10.87;64.10
75051;BME280;63628;47.656;11.310;2023-04-25T07:21:43;94113.53;;;10.21;66.32
75051;BME280;63628;47.656;11.310;2023-04-25T07:24:11;94106.75;;;9.70;59.16
75051;BME280;63628;47.656;11.310;2023-04-25T07:26:37;94104.88;;;10.09;66.37
75051;BME280;63628;47.656;11.310;2023-04-25T07:29:04;94113.44;;;10.16;66.15
75051;BME280;63628;47.656;11.310;2023-04-25T07:31:31;94104.44;;;10.17;66.08
75051;BME280;63628;47.656;11.310;2023-04-25T07:33:58;94109.19;;;10.15;69.01
75051;BME280;63628;47.656;11.310;2023-04-25T07:36:27;94106.78;;;10.13;68.31
75051;BME280;63628;47.656;11.310;2023-04-25T07:38:54;94099.41;;;10.37;60.39
75051;BME280;63628;47.656;11.310;2023-04-25T07:41:22;94111.44;;;10.23;68.67
75051;BME280;63628;47.656;11.310;2023-04-25T07:43:48;94106.06;;;10.18;69.08
75051;BME280;63628;47.656;11.310;2023-04-25T07:46:15;94099.97;;;10.39;66.10
75051;BME280;63628;47.656;11.310;2023-04-25T07:48:42;94108.28;;;10.26;68.75
75051;BME280;63628;47.656;11.310;2023-04-25T07:51:09;94102.63;;;10.39;64.29
75051;BME280;63628;47.656;11.310;2023-04-25T07:53:37;94098.84;;;10.84;63.82
75051;BME280;63628;47.656;11.310;2023-04-25T07:56:05;94090.09;;;11.10;65.01
75051;BME280;63628;47.656;11.310;2023-04-25T07:58:33;94096.78;;;11.18;64.88
75051;BME280;63628;47.656;11.310;2023-04-25T08:00:59;94099.16;;;10.88;66.29
75051;BME280;63628;47.656;11.310;2023-04-25T08:03:26;94088.94;;;11.33;65.31
75051;BME280;63628;47.656;11.310;2023-04-25T08:05:53;94081.81;;;11.34;55.18
75051;BME280;63628;47.656;11.310;2023-04-25T08:08:21;94079.97;;;11.39;61.63
75051;BME280;63628;47.656;11.310;2023-04-25T08:10:47;94081.91;;;12.54;58.62
75051;BME280;63628;47.656;11.310;2023-04-25T08:13:14;94085.28;;;10.75;67.62
75051;BME280;63628;47.656;11.310;2023-04-25T08:15:43;94085.13;;;10.87;67.63
75051;BME280;63628;47.656;11.310;2023-04-25T08:18:09;94071.56;;;11.10;64.95
75051;BME280;63628;47.656;11.310;2023-04-25T08:20:36;94085.66;;;10.89;66.77
75051;BME280;63628;47.656;11.310;2023-04-25T08:23:03;94077.47;;;10.91;67.40
75051;BME280;63628;47.656;11.310;2023-04-25T08:25:29;94082.50;;;10.92;67.36
75051;BME280;63628;47.656;11.310;2023-04-25T08:27:56;94084.06;;;10.88;69.27
75051;BME280;63628;47.656;11.310;2023-04-25T08:30:23;94071.72;;;10.99;58.07
75051;BME280;63628;47.656;11.310;2023-04-25T08:32:51;94083.72;;;10.79;68.64
75051;BME280;63628;47.656;11.310;2023-04-25T08:35:18;94081.63;;;10.82;68.73
75051;BME280;63628;47.656;11.310;2023-04-25T08:37:44;94066.34;;;13.44;55.22
75051;BME280;63628;47.656;11.310;2023-04-25T08:40:12;94066.78;;;11.44;49.16
75051;BME280;63628;47.656;11.310;2023-04-25T08:42:41;94064.50;;;12.11;53.56
75051;BME280;63628;47.656;11.310;2023-04-25T08:45:08;94062.66;;;11.69;48.80
75051;BME280;63628;47.656;11.310;2023-04-25T08:47:36;94062.63;;;11.17;51.56
75051;BME280;63628;47.656;11.310;2023-04-25T08:50:06;94077.81;;;10.99;66.53
75051;BME280;63628;47.656;11.310;2023-04-25T08:52:36;94077.31;;;11.02;67.22
75051;BME280;63628;47.656;11.310;2023-04-25T08:55:07;94073.38;;;11.42;56.07
75051;BME280;63628;47.656;11.310;2023-04-25T08:57:35;94071.16;;;10.97;65.29
75051;BME280;63628;47.656;11.310;2023-04-25T09:00:04;94076.72;;;10.95;67.29
75051;BME280;63628;47.656;11.310;2023-04-25T09:02:32;94095.28;;;11.00;67.79
75051;BME280;63628;47.656;11.310;2023-04-25T09:05:00;94094.69;;;11.20;56.58
75051;BME280;63628;47.656;11.310;2023-04-25T09:07:28;94082.66;;;11.44;57.90
75051;BME280;63628;47.656;11.310;2023-04-25T09:09:55;94096.19;;;11.11;55.71
75051;BME280;63628;47.656;11.310;2023-04-25T09:12:22;94098.63;;;11.18;57.33
75051;BME280;63628;47.656;11.310;2023-04-25T09:15:05;94115.41;;;11.01;57.67
75051;BME280;63628;47.656;11.310;2023-04-25T09:17:32;94118.78;;;11.19;60.20
75051;BME280;63628;47.656;11.310;2023-04-25T09:20:06;94126.94;;;11.12;57.47
75051;BME280;63628;47.656;11.310;2023-04-25T09:22:36;94134.25;;;11.05;60.87
75051;BME280;63628;47.656;11.310;2023-04-25T09:25:07;94135.31;;;11.04;68.03
75051;BME280;63628;47.656;11.310;2023-04-25T09:27:34;94129.31;;;10.87;57.23
75051;BME280;63628;47.656;11.310;2023-04-25T09:30:02;94122.94;;;11.09;62.15
75051;BME280;63628;47.656;11.310;2023-04-25T09:32:29;94129.81;;;10.84;59.06
75051;BME280;63628;47.656;11.310;2023-04-25T09:34:57;94132.13;;;10.75;57.18
75051;BME280;63628;47.656;11.310;2023-04-25T09:37:25;94119.19;;;11.37;60.60
75051;BME280;63628;47.656;11.310;2023-04-25T09:39:55;94134.13;;;11.17;61.71
75051;BME280;63628;47.656;11.310;2023-04-25T09:42:23;94139.72;;;11.20;67.73
75051;BME280;63628;47.656;11.310;2023-04-25T09:44:52;94137.09;;;11.25;67.12
75051;BME280;63628;47.656;11.310;2023-04-25T09:47:19;94131.72;;;11.15;68.36
75051;BME280;63628;47.656;11.310;2023-04-25T09:49:47;94131.72;;;11.15;66.03
75051;BME280;63628;47.656;11.310;2023-04-25T09:52:15;94142.59;;;11.19;68.68
75051;BME280;63628;47.656;11.310;2023-04-25T09:54:43;94140.84;;;11.29;67.08
75051;BME280;63628;47.656;11.310;2023-04-25T09:57:13;94137.19;;;11.35;56.84
75051;BME280;63628;47.656;11.310;2023-04-25T09:59:43;94135.19;;;11.53;56.38
75051;BME280;63628;47.656;11.310;2023-04-25T10:02:11;94150.03;;;11.54;63.10
75051;BME280;63628;47.656;11.310;2023-04-25T10:04:38;94150.09;;;11.64;63.41
75051;BME280;63628;47.656;11.310;2023-04-25T10:07:07;94149.00;;;11.92;55.96
75051;BME280;63628;47.656;11.310;2023-04-25T10:09:37;94144.13;;;11.41;66.36
75051;BME280;63628;47.656;11.310;2023-04-25T10:12:06;94137.59;;;11.86;60.97
75051;BME280;63628;47.656;11.310;2023-04-25T10:14:35;94137.34;;;11.61;62.09
75051;BME280;63628;47.656;11.310;2023-04-25T10:17:02;94130.72;;;11.58;62.71
75051;BME280;63628;47.656;11.310;2023-04-25T10:19:30;94127.53;;;11.56;59.01
75051;BME280;63628;47.656;11.310;2023-04-25T10:22:07;94132.47;;;11.42;66.99
75051;BME280;63628;47.656;11.310;2023-04-25T10:24:34;94133.50;;;12.16;53.66
75051;BME280;63628;47.656;11.310;2023-04-25T10:27:02;94136.53;;;11.55;66.00
75051;BME280;63628;47.656;11.310;2023-04-25T10:29:29;94137.22;;;11.40;59.69
75051;BME280;63628;47.656;11.310;2023-04-25T10:31:57;94142.56;;;11.46;66.86
75051;BME280;63628;47.656;11.310;2023-04-25T10:34:25;94141.84;;;11.92;58.08
75051;BME280;63628;47.656;11.310;2023-04-25T10:37:03;94154.59;;;11.63;67.42
75051;BME280;63628;47.656;11.310;2023-04-25T10:39:30;94158.66;;;11.07;54.78
75051;BME280;63628;47.656;11.310;2023-04-25T10:41:57;94166.34;;;11.40;62.08
75051;BME280;63628;47.656;11.310;2023-04-25T10:44:26;94168.41;;;11.33;60.49
75051;BME280;63628;47.656;11.310;2023-04-25T10:46:54;94194.41;;;11.36;59.92
75051;BME280;63628;47.656;11.310;2023-04-25T10:49:33;94199.41;;;11.33;61.90
75051;BME280;63628;47.656;11.310;2023-04-25T10:52:17;94195.53;;;10.92;65.10
75051;BME280;63628;47.656;11.310;2023-04-25T10:54:48;94206.50;;;11.27;65.32
75051;BME280;63628;47.656;11.310;2023-04-25T10:57:30;94212.16;;;11.09;64.85
75051;BME280;63628;47.656;11.310;2023-04-25T11:00:01;94211.97;;;10.94;63.60
75051;BME280;63628;47.656;11.310;2023-04-25T11:02:40;94211.97;;;11.16;64.09
75051;BME280;63628;47.656;11.310;2023-04-25T11:05:09;94225.97;;;11.11;64.79
75051;BME280;63628;47.656;11.310;2023-04-25T11:07:44;94230.94;;;11.07;65.48
75051;BME280;63628;47.656;11.310;2023-04-25T11:10:31;94231.56;;;10.93;63.01
75051;BME280;63628;47.656;11.310;2023-04-25T11:12:58;94238.66;;;10.87;63.53
75051;BME280;63628;47.656;11.310;2023-04-25T11:15:25;94244.75;;;10.88;60.21
75051;BME280;63628;47.656;11.310;2023-04-25T11:17:52;94244.25;;;11.13;66.71
75051;BME280;63628;47.656;11.310;2023-04-25T11:20:21;94244.69;;;10.83;63.32
75051;BME280;63628;47.656;11.310;2023-04-25T11:22:48;94253.03;;;10.96;63.59
75051;BME280;63628;47.656;11.310;2023-04-25T11:25:17;94258.91;;;10.55;63.29
75051;BME280;63628;47.656;11.310;2023-04-25T11:27:50;94249.34;;;10.97;67.34
75051;BME280;63628;47.656;11.310;2023-04-25T11:30:21;94247.28;;;10.56;67.00
75051;BME280;63628;47.656;11.310;2023-04-25T11:32:48;94244.50;;;10.45;67.29
75051;BME280;63628;47.656;11.310;2023-04-25T11:35:15;94235.63;;;11.00;65.80
75051;BME280;63628;47.656;11.310;2023-04-25T11:37:43;94229.94;;;11.14;66.18
75051;BME280;63628;47.656;11.310;2023-04-25T11:40:11;94232.00;;;10.85;64.01
75051;BME280;63628;47.656;11.310;2023-04-25T11:42:39;94214.44;;;11.54;63.30
75051;BME280;63628;47.656;11.310;2023-04-25T11:45:07;94229.28;;;11.55;60.89
75051;BME280;63628;47.656;11.310;2023-04-25T11:47:34;94215.91;;;12.04;64.46
75051;BME280;63628;47.656;11.310;2023-04-25T11:50:02;94214.94;;;11.78;59.79
75051;BME280;63628;47.656;11.310;2023-04-25T11:52:37;94211.88;;;11.96;63.94
75051;BME280;63628;47.656;11.310;2023-04-25T11:55:08;94213.66;;;11.27;62.55
75051;BME280;63628;47.656;11.310;2023-04-25T11:57:38;94212.28;;;11.78;61.79
75051;BME280;63628;47.656;11.310;2023-04-25T12:00:10;94215.69;;;11.47;61.66
75051;BME280;63628;47.656;11.310;2023-04-25T12:02:41;94219.41;;;10.48;62.11
75051;BME280;63628;47.656;11.310;2023-04-25T12:05:08;94221.41;;;11.06;66.02
75051;BME280;63628;47.656;11.310;2023-04-25T12:07:56;94227.53;;;10.08;63.55
75051;BME280;63628;47.656;11.310;2023-04-25T12:10:24;94214.91;;;9.93;63.54
75051;BME280;63628;47.656;11.310;2023-04-25T12:12:52;94210.69;;;10.14;66.38
75051;BME280;63628;47.656;11.310;2023-04-25T12:15:24;94201.78;;;9.48;63.57
75051;BME280;63628;47.656;11.310;2023-04-25T12:17:52;94193.28;;;9.96;61.91
75051;BME280;63628;47.656;11.310;2023-04-25T12:20:20;94189.19;;;9.72;63.06
75051;BME280;63628;47.656;11.310;2023-04-25T12:22:50;94184.66;;;9.50;64.79
75051;BME280;63628;47.656;11.310;2023-04-25T12:25:36;94170.53;;;11.04;69.37
75051;BME280;63628;47.656;11.310;2023-04-25T12:28:11;94164.66;;;10.48;61.23
75051;BME280;63628;47.656;11.310;2023-04-25T12:30:57;94165.44;;;10.10;63.61
75051;BME280;63628;47.656;11.310;2023-04-25T12:33:26;94185.03;;;10.75;64.08
75051;BME280;63628;47.656;11.310;2023-04-25T12:35:53;94203.25;;;10.93;68.75
75051;BME280;63628;47.656;11.310;2023-04-25T12:38:21;94227.00;;;11.10;68.76
75051;BME280;63628;47.656;11.310;2023-04-25T12:40:49;94262.25;;;9.95;64.94
75051;BME280;63628;47.656;11.310;2023-04-25T12:43:16;94258.28;;;9.47;66.83
75051;BME280;63628;47.656;11.310;2023-04-25T12:45:44;94248.22;;;8.35;71.87
75051;BME280;63628;47.656;11.310;2023-04-25T12:48:11;94246.41;;;8.76;71.36
75051;BME280;63628;47.656;11.310;2023-04-25T12:50:38;94248.25;;;8.75;73.04
75051;BME280;63628;47.656;11.310;2023-04-25T12:53:04;94267.84;;;9.08;70.91
75051;BME280;63628;47.656;11.310;2023-04-25T12:55:31;94272.97;;;10.22;67.90
75051;BME280;63628;47.656;11.310;2023-04-25T12:57:59;94277.13;;;10.34;72.00